createdAt,value
2018-07-21T00:01:43.765Z,21.00
2018-07-21T00:06:40.130Z,20.90
2018-07-21T00:09:11.289Z,20.90
2018-07-21T00:11:40.073Z,20.80
2018-07-21T00:14:09.007Z,20.80
2018-07-21T00:16:37.833Z,20.70
2018-07-21T00:19:06.401Z,20.70
2018-07-21T00:21:34.814Z,20.70
2018-07-21T00:24:03.374Z,20.60
2018-07-21T00:26:37.032Z,20.60
2018-07-21T00:29:05.556Z,20.50
2018-07-21T00:31:34.012Z,20.50
2018-07-21T00:34:02.416Z,20.40
2018-07-21T00:36:30.869Z,20.40
2018-07-21T00:38:59.427Z,20.40
2018-07-21T00:41:28.984Z,20.30
2018-07-21T00:43:57.324Z,20.30
2018-07-21T00:46:25.805Z,20.30
2018-07-21T00:48:54.251Z,20.30
2018-07-21T00:51:22.732Z,20.20
2018-07-21T00:53:51.249Z,20.20
2018-07-21T00:56:19.967Z,20.20
2018-07-21T00:58:48.410Z,20.10
2018-07-21T01:01:16.804Z,20.10
2018-07-21T01:03:45.352Z,20.10
2018-07-21T01:06:13.796Z,20.10
2018-07-21T01:08:42.342Z,20.10
2018-07-21T01:11:11.301Z,20.00
2018-07-21T01:13:39.729Z,20.00
2018-07-21T01:16:08.572Z,20.00
2018-07-21T01:18:37.149Z,20.00
2018-07-21T01:21:05.668Z,19.90
2018-07-21T01:23:34.024Z,19.90
2018-07-21T01:26:02.495Z,19.90
2018-07-21T01:28:31.353Z,19.90
2018-07-21T01:30:59.800Z,19.80
2018-07-21T01:35:56.320Z,19.70
2018-07-21T01:38:24.888Z,19.80
2018-07-21T01:40:53.277Z,19.80
2018-07-21T01:43:21.806Z,19.80
2018-07-21T01:45:50.261Z,19.70
2018-07-21T01:48:18.758Z,19.70
2018-07-21T01:50:47.364Z,19.70
2018-07-21T01:53:15.933Z,19.70
2018-07-21T01:55:44.365Z,19.70
2018-07-21T01:58:12.852Z,19.60
2018-07-21T02:00:41.352Z,19.50
2018-07-21T02:03:09.765Z,19.50
2018-07-21T02:05:38.188Z,19.50
2018-07-21T02:08:06.714Z,19.40
2018-07-21T02:10:35.189Z,19.40
2018-07-21T02:13:03.648Z,19.40
2018-07-21T02:15:32.170Z,19.50
2018-07-21T02:18:00.948Z,19.50
2018-07-21T02:20:29.569Z,19.50
2018-07-21T02:22:58.036Z,19.50
2018-07-21T02:25:26.490Z,19.50
2018-07-21T02:27:55.023Z,19.50
2018-07-21T02:30:23.575Z,19.40
2018-07-21T02:32:51.980Z,19.40
2018-07-21T02:35:20.435Z,19.40
2018-07-21T02:37:48.892Z,19.40
2018-07-21T02:40:17.401Z,19.30
2018-07-21T02:42:45.948Z,19.30
2018-07-21T02:45:14.441Z,19.30
2018-07-21T02:47:43.080Z,19.30
2018-07-21T02:50:11.726Z,19.20
2018-07-21T02:52:40.157Z,19.20
2018-07-21T02:55:08.553Z,19.20
2018-07-21T02:57:37.024Z,19.10
2018-07-21T03:00:05.708Z,19.10
2018-07-21T03:02:34.135Z,19.10
2018-07-21T03:05:02.567Z,19.10
2018-07-21T03:07:31.356Z,19.00
2018-07-21T03:09:59.998Z,19.10
2018-07-21T03:12:28.395Z,19.00
2018-07-21T03:14:56.873Z,19.00
2018-07-21T03:17:25.325Z,19.00
2018-07-21T03:19:53.760Z,19.00
2018-07-21T03:22:22.168Z,19.00
2018-07-21T03:24:50.640Z,19.00
2018-07-21T03:27:19.089Z,19.00
2018-07-21T03:29:47.588Z,19.00
2018-07-21T03:32:16.045Z,19.00
2018-07-21T03:34:49.456Z,19.00
2018-07-21T03:37:17.920Z,19.00
2018-07-21T03:39:46.428Z,18.90
2018-07-21T03:42:14.917Z,18.90
2018-07-21T03:44:43.458Z,18.90
2018-07-21T03:47:11.932Z,18.90
2018-07-21T03:52:08.385Z,18.90
2018-07-21T03:54:36.914Z,18.90
2018-07-21T03:57:05.772Z,18.90
2018-07-21T03:59:34.229Z,18.90
2018-07-21T04:04:30.644Z,18.90
2018-07-21T04:06:59.323Z,18.90
2018-07-21T04:09:31.429Z,18.90
2018-07-21T04:12:00.067Z,18.80
2018-07-21T04:14:28.608Z,18.80
2018-07-21T04:16:57.084Z,18.80
2018-07-21T04:19:25.692Z,18.80
2018-07-21T04:21:54.188Z,18.80
2018-07-21T04:24:22.673Z,18.80
2018-07-21T04:26:51.112Z,18.80
2018-07-21T04:29:19.560Z,18.80
2018-07-21T04:31:47.960Z,18.80
2018-07-21T04:36:44.413Z,18.90
2018-07-21T04:39:13.003Z,18.90
2018-07-21T04:41:42.168Z,18.90
2018-07-21T04:44:10.611Z,18.90
2018-07-21T04:46:39.120Z,18.80
2018-07-21T04:49:07.593Z,18.80
2018-07-21T04:51:36.036Z,18.80
2018-07-21T04:54:04.652Z,18.80
2018-07-21T04:56:33.068Z,18.80
2018-07-21T04:59:01.485Z,18.80
2018-07-21T05:01:29.936Z,18.80
2018-07-21T05:03:58.762Z,18.80
2018-07-21T05:06:27.177Z,18.80
2018-07-21T05:08:55.587Z,18.80
2018-07-21T05:11:24.338Z,18.80
2018-07-21T05:13:52.967Z,18.80
2018-07-21T05:16:22.596Z,18.90
2018-07-21T05:18:51.268Z,18.90
2018-07-21T05:21:19.952Z,18.90
2018-07-21T05:23:53.250Z,19.00
2018-07-21T05:26:21.809Z,19.10
2018-07-21T05:28:50.346Z,19.20
2018-07-21T05:31:19.464Z,19.20
2018-07-21T05:33:49.101Z,19.20
2018-07-21T05:36:17.568Z,19.30
2018-07-21T05:38:46.033Z,19.30
2018-07-21T05:41:14.625Z,19.40
2018-07-21T05:43:43.233Z,19.40
2018-07-21T05:46:11.697Z,19.50
2018-07-21T05:48:40.349Z,19.50
2018-07-21T05:51:08.789Z,19.60
2018-07-21T05:53:37.390Z,19.60
2018-07-21T05:56:11.820Z,19.70
2018-07-21T05:58:40.253Z,19.70
2018-07-21T06:01:08.793Z,19.70
2018-07-21T06:03:38.093Z,19.80
2018-07-21T06:08:34.270Z,19.90
2018-07-21T06:11:02.578Z,20.00
2018-07-21T06:13:30.867Z,20.10
2018-07-21T06:15:59.143Z,20.20
2018-07-21T06:18:27.537Z,20.40
2018-07-21T06:20:56.920Z,20.60
2018-07-21T06:23:25.293Z,21.00
2018-07-21T06:25:53.571Z,21.30
2018-07-21T06:28:22.023Z,21.60
2018-07-21T06:30:50.586Z,22.00
2018-07-21T06:33:19.068Z,22.30
2018-07-21T06:35:47.769Z,22.50
2018-07-21T06:38:16.297Z,22.60
2018-07-21T06:40:44.713Z,22.80
2018-07-21T06:43:13.461Z,22.80
2018-07-21T06:45:42.108Z,22.80
2018-07-21T06:48:10.783Z,22.80
2018-07-21T06:50:39.260Z,22.80
2018-07-21T06:53:08.021Z,22.90
2018-07-21T06:55:36.596Z,22.80
2018-07-21T06:58:06.325Z,22.80
2018-07-21T07:00:34.925Z,22.80
2018-07-21T07:03:03.377Z,22.90
2018-07-21T07:07:59.888Z,23.00
2018-07-21T07:10:28.282Z,23.00
2018-07-21T07:12:56.752Z,23.00
2018-07-21T07:15:25.260Z,23.00
2018-07-21T07:17:54.808Z,23.00
2018-07-21T07:20:23.377Z,23.10
2018-07-21T07:22:55.615Z,23.00
2018-07-21T07:25:24.044Z,23.10
2018-07-21T07:27:52.577Z,23.00
2018-07-21T07:30:21.006Z,23.10
2018-07-21T07:32:49.456Z,23.20
2018-07-21T07:35:18.934Z,23.20
2018-07-21T07:37:47.449Z,23.30
2018-07-21T07:40:16.001Z,23.40
2018-07-21T07:42:45.619Z,23.40
2018-07-21T07:45:14.039Z,23.50
2018-07-21T07:47:42.612Z,23.50
2018-07-21T07:50:11.153Z,23.60
2018-07-21T07:52:39.729Z,23.70
2018-07-21T07:55:08.261Z,23.70
2018-07-21T07:57:40.208Z,23.80
2018-07-21T08:00:08.736Z,23.80
2018-07-21T08:05:08.380Z,24.10
2018-07-21T08:07:37.220Z,24.20
2018-07-21T08:10:06.049Z,24.20
2018-07-21T08:12:34.525Z,24.30
2018-07-21T08:15:04.237Z,24.40
2018-07-21T08:17:32.714Z,24.50
2018-07-21T08:20:01.294Z,24.60
2018-07-21T08:22:29.839Z,24.80
2018-07-21T08:24:58.305Z,24.90
2018-07-21T08:27:27.204Z,25.10
2018-07-21T08:29:55.741Z,25.20
2018-07-21T08:32:24.209Z,25.30
2018-07-21T08:34:52.653Z,25.30
2018-07-21T08:37:21.132Z,25.40
2018-07-21T08:39:49.642Z,25.50
2018-07-21T08:42:18.076Z,25.50
2018-07-21T08:44:46.561Z,25.60
2018-07-21T08:47:15.373Z,25.80
2018-07-21T08:49:43.801Z,25.90
2018-07-21T08:52:12.355Z,25.90
2018-07-21T08:54:40.808Z,26.00
2018-07-21T08:57:09.219Z,26.20
2018-07-21T08:59:37.687Z,26.30
2018-07-21T09:02:06.414Z,26.30
2018-07-21T09:04:34.871Z,26.20
2018-07-21T09:07:03.489Z,26.20
2018-07-21T09:09:31.977Z,26.20
2018-07-21T09:12:00.544Z,26.20
2018-07-21T09:14:31.276Z,26.30
2018-07-21T09:16:59.836Z,26.40
2018-07-21T09:19:28.312Z,26.50
2018-07-21T09:21:56.744Z,26.50
2018-07-21T09:24:25.290Z,26.70
2018-07-21T09:26:53.869Z,26.70
2018-07-21T09:29:22.331Z,26.70
2018-07-21T09:31:50.797Z,26.70
2018-07-21T09:34:19.231Z,26.70
2018-07-21T09:36:47.712Z,26.70
2018-07-21T09:39:16.397Z,26.70
2018-07-21T09:41:44.773Z,26.80
2018-07-21T09:44:13.272Z,27.00
2018-07-21T09:46:41.776Z,27.10
2018-07-21T09:49:10.323Z,27.10
2018-07-21T09:51:38.752Z,27.10
2018-07-21T09:54:07.200Z,27.20
2018-07-21T09:56:35.573Z,27.30
2018-07-21T09:59:04.348Z,27.40
2018-07-21T10:01:32.948Z,27.50
2018-07-21T10:04:01.767Z,27.60
2018-07-21T10:06:30.264Z,27.70
2018-07-21T10:08:59.798Z,27.70
2018-07-21T10:11:28.238Z,27.60
2018-07-21T10:13:56.796Z,27.60
2018-07-21T10:16:25.220Z,27.80
2018-07-21T10:18:53.662Z,28.10
2018-07-21T10:21:22.110Z,28.20
2018-07-21T10:23:50.560Z,28.30
2018-07-21T10:26:24.205Z,28.40
2018-07-21T10:28:57.973Z,28.40
2018-07-21T10:31:26.548Z,28.50
2018-07-21T10:33:55.046Z,28.60
2018-07-21T10:36:23.608Z,28.60
2018-07-21T10:38:52.244Z,28.60
2018-07-21T10:41:20.499Z,28.50
2018-07-21T10:43:49.144Z,28.70
2018-07-21T10:46:17.725Z,28.70
2018-07-21T10:48:46.441Z,28.70
2018-07-21T10:51:14.877Z,28.70
2018-07-21T10:53:43.423Z,28.70
2018-07-21T10:56:11.849Z,28.90
2018-07-21T10:58:40.378Z,28.90
2018-07-21T11:01:08.769Z,29.00
2018-07-21T11:03:37.182Z,29.00
2018-07-21T11:06:05.674Z,29.20
2018-07-21T11:08:34.109Z,29.30
2018-07-21T11:11:02.597Z,29.50
2018-07-21T11:13:31.184Z,29.80
2018-07-21T11:15:59.703Z,30.10
2018-07-21T11:18:28.165Z,30.40
2018-07-21T11:20:56.629Z,30.60
2018-07-21T11:23:25.200Z,30.80
2018-07-21T11:25:53.644Z,31.40
2018-07-21T11:28:22.096Z,31.90
2018-07-21T11:30:50.399Z,32.50
2018-07-21T11:33:18.707Z,33.00
2018-07-21T11:35:47.347Z,33.10
2018-07-21T11:38:15.644Z,33.50
2018-07-21T11:40:44.173Z,33.90
2018-07-21T11:43:12.608Z,34.20
2018-07-21T11:45:41.113Z,34.40
2018-07-21T11:48:09.523Z,34.50
2018-07-21T11:50:37.914Z,34.70
2018-07-21T11:53:06.344Z,35.00
2018-07-21T11:55:34.700Z,35.40
2018-07-21T11:58:03.476Z,35.40
2018-07-21T12:00:31.884Z,35.50
2018-07-21T12:03:00.319Z,35.70
2018-07-21T12:05:28.780Z,36.00
2018-07-21T12:07:57.339Z,36.20
2018-07-21T12:10:30.224Z,36.40
2018-07-21T12:12:58.804Z,36.60
2018-07-21T12:15:27.270Z,36.70
2018-07-21T12:17:55.736Z,36.80
2018-07-21T12:20:24.199Z,36.90
2018-07-21T12:22:52.582Z,37.30
2018-07-21T12:25:21.121Z,37.30
2018-07-21T12:27:49.588Z,36.90
2018-07-21T12:30:18.073Z,37.40
2018-07-21T12:32:46.521Z,37.20
2018-07-21T12:35:14.998Z,37.50
2018-07-21T12:37:43.497Z,37.90
2018-07-21T12:42:39.647Z,38.70
2018-07-21T12:45:07.999Z,38.80
2018-07-21T12:47:36.421Z,38.00
2018-07-21T12:50:04.827Z,38.50
2018-07-21T12:52:33.124Z,38.50
2018-07-21T12:55:01.475Z,38.60
2018-07-21T12:57:29.834Z,37.90
2018-07-21T12:59:58.164Z,38.50
2018-07-21T13:02:26.560Z,38.10
2018-07-21T13:04:55.108Z,38.00
2018-07-21T13:07:23.520Z,38.00
2018-07-21T13:09:51.950Z,38.00
2018-07-21T13:12:23.960Z,38.00
2018-07-21T13:14:52.444Z,37.80
2018-07-21T13:17:20.921Z,37.90
2018-07-21T13:19:49.331Z,38.10
2018-07-21T13:22:17.767Z,38.10
2018-07-21T13:24:46.128Z,37.30
2018-07-21T13:27:22.722Z,36.40
2018-07-21T13:29:51.070Z,36.30
2018-07-21T13:32:19.616Z,37.20
2018-07-21T13:34:48.142Z,37.30
2018-07-21T13:37:16.615Z,37.50
2018-07-21T13:39:44.969Z,37.40
2018-07-21T13:42:13.397Z,37.20
2018-07-21T13:44:41.904Z,37.10
2018-07-21T13:47:10.540Z,37.20
2018-07-21T13:49:38.908Z,36.90
2018-07-21T13:52:07.326Z,37.00
2018-07-21T13:54:35.825Z,37.40
2018-07-21T13:57:04.293Z,38.00
2018-07-21T13:59:32.662Z,38.10
2018-07-21T14:02:01.093Z,38.50
2018-07-21T14:04:29.492Z,38.50
2018-07-21T14:06:57.977Z,37.80
2018-07-21T14:09:26.492Z,37.50
2018-07-21T14:11:54.872Z,38.00
2018-07-21T14:14:23.644Z,38.10
2018-07-21T14:16:52.144Z,38.60
2018-07-21T14:19:20.546Z,38.70
2018-07-21T14:21:48.924Z,37.70
2018-07-21T14:24:17.318Z,37.90
2018-07-21T14:26:45.699Z,37.90
2018-07-21T14:29:14.160Z,37.70
2018-07-21T14:31:42.564Z,38.50
2018-07-21T14:34:11.373Z,38.40
2018-07-21T14:39:09.487Z,38.80
2018-07-21T14:41:38.302Z,38.50
2018-07-21T14:44:06.712Z,37.80
2018-07-21T14:46:35.021Z,38.10
2018-07-21T14:49:03.628Z,38.00
2018-07-21T14:51:32.120Z,37.50
2018-07-21T14:54:00.645Z,38.10
2018-07-21T14:58:57.293Z,37.90
2018-07-21T15:01:25.899Z,37.90
2018-07-21T15:03:54.400Z,37.70
2018-07-21T15:06:23.000Z,37.70
2018-07-21T15:08:51.440Z,37.50
2018-07-21T15:11:19.956Z,37.50
2018-07-21T15:13:48.533Z,37.70
2018-07-21T15:16:16.976Z,37.30
2018-07-21T15:18:45.380Z,37.10
2018-07-21T15:21:13.819Z,37.10
2018-07-21T15:23:42.344Z,37.00
2018-07-21T15:26:10.838Z,36.90
2018-07-21T15:28:39.245Z,36.50
2018-07-21T15:31:07.814Z,36.20
2018-07-21T15:33:36.265Z,36.20
2018-07-21T15:36:04.889Z,36.20
2018-07-21T15:38:33.335Z,36.00
2018-07-21T15:41:01.668Z,35.70
2018-07-21T15:43:30.148Z,35.70
2018-07-21T15:46:01.940Z,35.60
2018-07-21T15:48:30.512Z,36.10
2018-07-21T15:50:59.637Z,36.70
2018-07-21T15:53:28.009Z,36.60
2018-07-21T15:55:57.424Z,37.00
2018-07-21T15:58:26.164Z,36.50
2018-07-21T16:01:00.676Z,36.30
2018-07-21T16:03:29.070Z,36.80
2018-07-21T16:05:57.500Z,36.60
2018-07-21T16:08:26.085Z,37.10
2018-07-21T16:10:54.547Z,37.60
2018-07-21T16:13:22.948Z,37.60
2018-07-21T16:15:51.377Z,37.90
2018-07-21T16:18:20.845Z,38.10
2018-07-21T16:20:49.235Z,37.90
2018-07-21T16:23:17.666Z,37.70
2018-07-21T16:25:46.324Z,37.90
2018-07-21T16:28:14.808Z,37.80
2018-07-21T16:30:45.316Z,37.00
2018-07-21T16:33:13.715Z,37.40
2018-07-21T16:35:42.139Z,37.30
2018-07-21T16:38:10.532Z,37.50
2018-07-21T16:40:39.285Z,37.60
2018-07-21T16:43:07.715Z,37.50
2018-07-21T16:45:36.065Z,36.70
2018-07-21T16:48:04.356Z,36.90
2018-07-21T16:50:32.920Z,36.90
2018-07-21T16:53:01.322Z,36.90
2018-07-21T16:55:29.868Z,37.10
2018-07-21T17:00:26.237Z,35.90
2018-07-21T17:02:54.672Z,36.10
2018-07-21T17:05:23.097Z,36.50
2018-07-21T17:07:51.631Z,36.70
2018-07-21T17:10:20.165Z,36.90
2018-07-21T17:12:48.588Z,36.90
2018-07-21T17:15:17.980Z,37.20
2018-07-21T17:17:46.525Z,36.90
2018-07-21T17:20:15.024Z,36.50
2018-07-21T17:22:43.532Z,35.70
2018-07-21T17:25:12.022Z,36.00
2018-07-21T17:27:42.474Z,36.30
2018-07-21T17:30:10.964Z,36.30
2018-07-21T17:32:39.530Z,36.10
2018-07-21T17:35:08.050Z,36.20
2018-07-21T17:37:36.545Z,36.10
2018-07-21T17:40:05.174Z,36.00
2018-07-21T17:45:01.642Z,36.20
2018-07-21T17:49:59.409Z,36.20
2018-07-21T17:52:27.988Z,36.20
2018-07-21T17:54:56.436Z,36.20
2018-07-21T17:57:29.328Z,36.20
2018-07-21T17:59:57.797Z,36.20
2018-07-21T18:02:26.360Z,36.00
2018-07-21T18:04:54.918Z,35.40
2018-07-21T18:07:23.492Z,35.30
2018-07-21T18:09:51.969Z,35.20
2018-07-21T18:12:24.185Z,35.30
2018-07-21T18:14:52.719Z,35.50
2018-07-21T18:17:21.144Z,35.60
2018-07-21T18:19:49.637Z,35.40
2018-07-21T18:22:18.977Z,35.10
2018-07-21T18:24:55.808Z,35.10
2018-07-21T18:27:28.300Z,34.90
2018-07-21T18:30:05.817Z,34.80
2018-07-21T18:32:34.246Z,34.80
2018-07-21T18:41:17.381Z,34.70
2018-07-21T18:43:51.657Z,33.80
2018-07-21T18:46:22.989Z,33.80
2018-07-21T18:48:51.626Z,33.80
2018-07-21T18:51:20.090Z,33.60
2018-07-21T18:53:48.522Z,33.50
2018-07-21T18:56:17.082Z,33.30
2018-07-21T18:58:45.616Z,33.20
2018-07-21T19:01:14.509Z,33.00
2018-07-21T19:03:42.993Z,32.90
2018-07-21T19:06:11.574Z,32.70
2018-07-21T19:08:45.189Z,32.60
2018-07-21T19:11:13.795Z,32.40
2018-07-21T19:13:42.268Z,32.20
2018-07-21T19:16:15.933Z,32.20
2018-07-21T19:18:44.318Z,32.00
2018-07-21T19:21:21.318Z,31.90
2018-07-21T19:23:50.661Z,31.80
2018-07-21T19:26:24.593Z,31.70
2018-07-21T19:28:53.326Z,31.50
2018-07-21T19:31:22.069Z,31.40
2018-07-21T19:33:50.640Z,31.30
2018-07-21T19:36:19.128Z,31.20
2018-07-21T19:38:47.629Z,31.00
2018-07-21T19:41:21.340Z,30.90
2018-07-21T19:46:17.704Z,30.70
2018-07-21T19:48:46.116Z,30.50
2018-07-21T19:51:14.547Z,30.30
2018-07-21T19:53:42.964Z,30.20
2018-07-21T19:56:11.420Z,30.10
2018-07-21T19:58:39.910Z,29.90
2018-07-21T20:01:08.349Z,29.80
2018-07-21T20:03:37.197Z,29.70
2018-07-21T20:06:05.696Z,29.50
2018-07-21T20:08:34.251Z,29.30
2018-07-21T20:11:02.662Z,29.20
2018-07-21T20:13:32.156Z,29.00
2018-07-21T20:16:00.716Z,28.90
2018-07-21T20:18:29.204Z,28.80
2018-07-21T20:20:57.801Z,28.60
2018-07-21T20:23:26.253Z,28.50
2018-07-21T20:25:54.804Z,28.40
2018-07-21T20:28:23.597Z,28.30
2018-07-21T20:33:19.996Z,28.10
2018-07-21T20:35:48.412Z,28.00
2018-07-21T20:38:16.956Z,27.90
2018-07-21T20:40:45.365Z,27.80
2018-07-21T20:43:13.804Z,27.70
2018-07-21T20:45:42.264Z,27.60
2018-07-21T20:48:10.770Z,27.60
2018-07-21T20:50:39.217Z,27.50
2018-07-21T20:53:07.704Z,27.40
2018-07-21T20:55:36.224Z,27.30
2018-07-21T20:58:05.056Z,27.20
2018-07-21T21:00:33.855Z,27.10
2018-07-21T21:03:02.232Z,27.00
2018-07-21T21:05:30.679Z,27.00
2018-07-21T21:07:59.127Z,26.90
2018-07-21T21:10:27.593Z,26.80
2018-07-21T21:12:56.029Z,26.80
2018-07-21T21:15:24.442Z,26.70
2018-07-21T21:17:52.872Z,26.60
2018-07-21T21:20:21.340Z,26.50
2018-07-21T21:22:49.915Z,26.40
2018-07-21T21:25:18.314Z,26.40
2018-07-21T21:27:46.829Z,26.30
2018-07-21T21:30:15.258Z,26.20
2018-07-21T21:32:43.805Z,26.20
2018-07-21T21:35:12.255Z,26.00
2018-07-21T21:37:40.533Z,26.00
2018-07-21T21:40:08.952Z,25.90
2018-07-21T21:42:37.636Z,25.80
2018-07-21T21:45:06.069Z,25.80
2018-07-21T21:47:34.548Z,25.70
2018-07-21T21:50:03.040Z,25.60
2018-07-21T21:52:31.633Z,25.60
2018-07-21T21:55:00.113Z,25.50
2018-07-21T21:57:28.487Z,25.40
2018-07-21T21:59:56.937Z,25.40
2018-07-21T22:02:25.405Z,25.30
2018-07-21T22:04:53.886Z,25.20
2018-07-21T22:07:24.334Z,25.20
2018-07-21T22:09:52.962Z,25.10
2018-07-21T22:12:21.457Z,25.00
2018-07-21T22:14:49.866Z,24.90
2018-07-21T22:17:18.401Z,24.80
2018-07-21T22:19:46.897Z,24.70
2018-07-21T22:22:15.380Z,24.70
2018-07-21T22:24:43.877Z,24.60
2018-07-21T22:27:12.312Z,24.50
2018-07-21T22:29:40.785Z,24.50
2018-07-21T22:32:09.253Z,24.40
2018-07-21T22:34:38.125Z,24.30
2018-07-21T22:37:06.952Z,24.30
2018-07-21T22:39:35.344Z,24.20
2018-07-21T22:42:04.004Z,24.10
2018-07-21T22:44:33.165Z,24.00
2018-07-21T22:47:01.599Z,24.00
2018-07-21T22:49:30.140Z,23.90
2018-07-21T22:52:02.571Z,23.90
2018-07-21T22:54:31.057Z,23.80
2018-07-21T22:56:59.497Z,23.70
2018-07-21T22:59:28.168Z,23.60
2018-07-21T23:01:56.676Z,23.60
2018-07-21T23:04:25.138Z,23.60
2018-07-21T23:06:53.578Z,23.50
2018-07-21T23:09:21.982Z,23.50
2018-07-21T23:11:50.361Z,23.40
2018-07-21T23:14:18.900Z,23.40
2018-07-21T23:16:47.310Z,23.30
2018-07-21T23:19:15.825Z,23.30
2018-07-21T23:24:12.277Z,23.10
2018-07-21T23:26:40.716Z,23.10
2018-07-21T23:29:12.932Z,23.10
2018-07-21T23:31:41.365Z,23.10
2018-07-21T23:34:09.864Z,23.00
2018-07-21T23:36:38.432Z,23.00
2018-07-21T23:39:08.896Z,22.90
2018-07-21T23:41:37.365Z,22.80
2018-07-21T23:44:05.927Z,22.70
2018-07-21T23:46:34.493Z,22.70
2018-07-21T23:49:02.937Z,22.60
2018-07-21T23:51:31.490Z,22.60
2018-07-21T23:54:00.025Z,22.50
2018-07-21T23:56:28.469Z,22.50
2018-07-21T23:58:56.901Z,22.50
